Time;durP1;ratioP1;P1;durP2;ratioP2;P2;SDS_P1;SDS_P2;PMS_P1;PMS_P2;Temp;Humidity;BMP_temperature;BMP_pressure;BME280_temperature;BME280_humidity;BME280_pressure;Samples;Min_cycle;Max_cycle;Signal;HPM_P1;HPM_P2
2021/12/03 00:02:08;;;;;;;15.93;9.27;;;;;;;-0.06;100.00;101686.53;10541267;28;20134;-57
2021/12/03 00:07:11;;;;;;;20.55;10.73;;;;;;;-0.11;100.00;101693.38;10541551;28;20131;-57
2021/12/03 00:12:13;;;;;;;16.17;10.00;;;;;;;-0.05;100.00;101694.25;10540609;28;20048;-57
2021/12/03 00:17:16;;;;;;;14.18;8.23;;;;;;;0.08;100.00;101691.69;10522853;28;20515;-57
2021/12/03 00:22:18;;;;;;;20.15;10.20;;;;;;;-0.05;100.00;101706.25;10540306;28;20373;-58
2021/12/03 00:27:20;;;;;;;20.55;8.13;;;;;;;0.06;100.00;101698.56;10541039;28;20040;-56
2021/12/03 00:32:23;;;;;;;18.88;9.15;;;;;;;0.03;100.00;101699.38;10540269;28;20408;-56
2021/12/03 00:37:25;;;;;;;12.95;8.43;;;;;;;-0.05;100.00;101701.09;10540744;28;20419;-57
2021/12/03 00:42:29;;;;;;;16.73;9.77;;;;;;;-0.14;100.00;101695.94;10539226;28;20445;-54
2021/12/03 00:47:31;;;;;;;13.32;9.43;;;;;;;-0.01;100.00;101706.25;10540038;28;20403;-56
2021/12/03 00:52:34;;;;;;;14.40;9.85;;;;;;;-0.04;100.00;101708.81;10539853;28;20047;-57
2021/12/03 00:57:36;;;;;;;16.08;9.75;;;;;;;0.03;100.00;101701.13;10539748;28;20055;-54
2021/12/03 01:02:39;;;;;;;22.17;11.13;;;;;;;-0.02;100.00;101688.22;10539313;28;20059;-56
2021/12/03 01:07:41;;;;;;;15.45;9.52;;;;;;;0.04;100.00;101689.97;10539705;28;20048;-56
2021/12/03 01:12:45;;;;;;;22.75;13.70;;;;;;;-0.08;100.00;101683.09;10539334;28;20048;-56
2021/12/03 01:17:47;;;;;;;20.40;14.85;;;;;;;-0.08;100.00;101695.97;10539361;28;20502;-58
2021/12/03 01:22:52;;;;;;;25.92;15.27;;;;;;;-0.15;100.00;101719.97;10538845;28;20403;-55
2021/12/03 01:27:55;;;;;;;22.25;12.93;;;;;;;0.01;100.00;101739.72;10539500;28;20059;-55
2021/12/03 01:32:59;;;;;;;26.15;15.07;;;;;;;-0.04;100.00;101695.94;10539047;28;20052;-56
2021/12/03 01:38:03;;;;;;;32.45;18.40;;;;;;;-0.11;100.00;101701.09;10539751;28;20040;-59
2021/12/03 01:43:07;;;;;;;27.20;16.30;;;;;;;-0.12;100.00;101714.81;10538671;28;20051;-58
2021/12/03 01:48:09;;;;;;;30.73;17.88;;;;;;;-0.05;100.00;101701.97;10539058;28;20051;-58
2021/12/03 01:53:14;;;;;;;23.65;16.45;;;;;;;-0.04;100.00;101702.81;10538936;28;20055;-59
2021/12/03 01:58:16;;;;;;;22.15;14.95;;;;;;;-0.01;100.00;101724.28;10546470;28;20044;-56
2021/12/03 02:03:22;;;;;;;20.60;14.32;;;;;;;-0.02;100.00;101714.84;10545904;28;20131;-57
2021/12/03 02:08:25;;;;;;;22.67;13.27;;;;;;;-0.02;100.00;101713.97;10546111;28;20051;-59
2021/12/03 02:13:27;;;;;;;23.85;15.70;;;;;;;0.03;100.00;101706.25;10545632;28;20471;-58
2021/12/03 02:18:30;;;;;;;26.02;17.02;;;;;;;0.00;100.00;101720.00;10545596;28;20041;-57
2021/12/03 02:23:33;;;;;;;27.15;17.42;;;;;;;0.14;100.00;101717.44;10527150;28;20408;-56
2021/12/03 02:28:40;;;;;;;23.08;17.45;;;;;;;0.08;100.00;101749.19;10545550;28;20048;-55
2021/12/03 02:33:43;;;;;;;29.20;18.63;;;;;;;0.04;100.00;101708.84;10544951;28;20048;-54
2021/12/03 02:38:46;;;;;;;28.77;17.33;;;;;;;0.11;100.00;101712.28;10544652;28;20399;-58
2021/12/03 02:43:49;;;;;;;27.05;19.63;;;;;;;0.11;100.00;101702.84;10544628;28;20051;-55
2021/12/03 02:48:51;;;;;;;34.13;22.25;;;;;;;0.13;100.00;101703.69;10526973;28;20040;-56
2021/12/03 02:53:53;;;;;;;41.88;26.02;;;;;;;0.18;100.00;101762.94;10543888;28;20487;-55
2021/12/03 02:58:56;;;;;;;33.70;23.13;;;;;;;0.21;100.00;101737.19;10544014;28;20055;-54
2021/12/03 03:03:58;;;;;;;41.85;25.60;;;;;;;0.11;100.00;101695.09;10544089;28;20041;-54
2021/12/03 03:09:03;;;;;;;43.83;28.63;;;;;;;0.18;100.00;101693.41;10524601;28;20127;-55
2021/12/03 03:14:06;;;;;;;53.13;30.23;;;;;;;0.12;100.00;101699.41;10543482;28;20090;-57
2021/12/03 03:19:16;;;;;;;39.97;27.80;;;;;;;0.25;100.00;101679.66;10543015;28;20431;-55
2021/12/03 03:24:19;;;;;;;47.42;30.02;;;;;;;0.13;100.00;101677.09;10543198;28;20071;-58
2021/12/03 03:29:22;;;;;;;56.65;33.40;;;;;;;0.22;100.00;101687.41;10525027;28;20052;-55
2021/12/03 03:34:24;;;;;;;58.63;34.70;;;;;;;0.39;100.00;101695.13;10542840;28;20044;-55
2021/12/03 03:39:27;;;;;;;64.70;36.45;;;;;;;0.36;100.00;101697.69;10542148;28;20040;-55
2021/12/03 03:44:29;;;;;;;74.07;38.60;;;;;;;0.28;100.00;101687.38;10541943;28;20044;-53
2021/12/03 03:49:33;;;;;;;70.57;38.80;;;;;;;0.17;100.00;101684.81;10542156;28;20059;-55
2021/12/03 03:54:35;;;;;;;82.78;41.50;;;;;;;0.21;100.00;101666.78;10541760;28;20055;-55
2021/12/03 03:59:37;;;;;;;87.60;40.20;;;;;;;0.18;100.00;101671.09;10541537;28;20048;-54
2021/12/03 04:04:40;;;;;;;87.95;40.78;;;;;;;0.17;100.00;101648.75;10541191;28;20044;-53
2021/12/03 04:09:42;;;;;;;75.70;36.83;;;;;;;0.27;100.00;101649.63;10541118;28;20058;-53
2021/12/03 04:14:44;;;;;;;66.70;33.70;;;;;;;0.23;100.00;101654.75;10541325;28;20055;-57
2021/12/03 04:19:46;;;;;;;84.80;37.45;;;;;;;0.15;100.00;101640.19;10539927;28;20055;-55
2021/12/03 04:24:53;;;;;;;69.65;34.95;;;;;;;0.18;100.00;101639.31;10540763;28;20044;-52
2021/12/03 04:29:56;;;;;;;69.53;33.53;;;;;;;0.39;100.00;101658.16;10540577;28;20055;-57
2021/12/03 04:34:58;;;;;;;81.15;34.13;;;;;;;0.41;100.00;101695.13;10540440;28;20047;-58
2021/12/03 04:40:01;;;;;;;81.20;35.53;;;;;;;0.33;100.00;101659.88;10539834;28;20483;-57
2021/12/03 04:45:05;;;;;;;98.63;39.53;;;;;;;0.34;100.00;101663.34;10539913;28;20051;-57
2021/12/03 04:50:10;;;;;;;91.30;39.42;;;;;;;0.34;100.00;101655.63;10539844;28;20059;-58
2021/12/03 04:55:13;;;;;;;76.13;37.03;;;;;;;0.43;100.00;101659.91;10539785;28;20047;-52
2021/12/03 05:00:19;;;;;;;68.82;32.60;;;;;;;0.42;100.00;101647.88;10539465;28;20044;-55
2021/12/03 05:05:26;;;;;;;77.63;35.72;;;;;;;0.45;100.00;101648.72;10539755;28;20055;-57
2021/12/03 05:10:32;;;;;;;80.72;36.25;;;;;;;0.44;100.00;101640.97;10539420;28;20451;-57
2021/12/03 05:15:36;;;;;;;93.53;43.15;;;;;;;0.55;100.00;101649.56;10539503;28;20044;-54
2021/12/03 05:20:39;;;;;;;112.95;43.78;;;;;;;0.46;100.00;101639.28;10539369;28;20044;-55
2021/12/03 05:25:42;;;;;;;86.18;38.53;;;;;;;0.58;100.00;101652.13;10539609;28;20047;-57
2021/12/03 05:30:45;;;;;;;90.63;40.33;;;;;;;0.70;100.00;101652.09;10543397;28;20047;-55
2021/12/03 05:35:47;;;;;;;92.32;41.10;;;;;;;0.68;100.00;101634.94;10547734;28;20043;-54
2021/12/03 05:40:50;;;;;;;80.18;34.75;;;;;;;0.83;100.00;101660.66;10546741;28;20084;-55
2021/12/03 05:45:52;;;;;;;98.97;41.40;;;;;;;0.82;100.00;101660.66;10546447;28;20475;-55
2021/12/03 05:50:54;;;;;;;97.03;39.15;;;;;;;0.82;100.00;101650.34;10546567;28;20048;-54
2021/12/03 05:55:57;;;;;;;102.57;41.50;;;;;;;0.84;100.00;101651.19;10546890;28;20044;-55
2021/12/03 06:00:59;;;;;;;110.97;43.38;;;;;;;0.91;100.00;101648.59;10546629;28;20044;-55
2021/12/03 06:06:02;;;;;;;92.88;37.28;;;;;;;0.97;100.00;101652.03;10545935;28;20094;-57
2021/12/03 06:11:04;;;;;;;80.50;38.13;;;;;;;0.96;100.00;101639.97;10546292;28;20047;-54
2021/12/03 06:16:08;;;;;;;86.13;40.25;;;;;;;1.07;100.00;101641.66;10545957;28;20055;-56
2021/12/03 06:21:12;;;;;;;97.40;40.83;;;;;;;1.06;100.00;101641.66;10545479;28;20101;-56
2021/12/03 06:26:14;;;;;;;80.63;39.55;;;;;;;1.05;100.00;101633.06;10545489;28;20051;-56
2021/12/03 06:31:16;;;;;;;89.03;38.65;;;;;;;1.00;100.00;101627.06;10545152;28;20048;-55
2021/12/03 06:36:19;;;;;;;85.95;38.08;;;;;;;1.00;100.00;101639.13;10526792;28;20512;-51
2021/12/03 06:41:21;;;;;;;67.57;36.33;;;;;;;1.06;100.00;101649.38;10543435;28;20415;-55
2021/12/03 06:46:24;;;;;;;76.32;36.00;;;;;;;1.14;100.00;101639.03;10527552;28;20044;-57
2021/12/03 06:51:26;;;;;;;73.70;37.72;;;;;;;1.08;100.00;101625.31;10544102;28;20496;-54
2021/12/03 06:57:03;;;;;;;79.55;37.50;;;;;;;1.11;100.00;101630.47;10544756;28;20047;-54
2021/12/03 07:01:58;;;;;;;49.03;26.63;;;;;;;1.08;100.00;101614.16;10540841;28;20040;-54
2021/12/03 07:07:01;;;;;;;50.28;25.98;;;;;;;1.11;100.00;101637.34;10544588;28;20052;-54
2021/12/03 07:12:04;;;;;;;47.72;23.40;;;;;;;1.18;100.00;101643.31;10543575;28;20051;-54
2021/12/03 07:17:07;;;;;;;47.00;20.73;;;;;;;1.15;100.00;101633.03;10543369;28;20044;-58
2021/12/03 07:22:09;;;;;;;38.78;18.77;;;;;;;1.13;100.00;101612.41;10542886;28;20051;-58
2021/12/03 07:27:11;;;;;;;33.15;16.27;;;;;;;1.18;100.00;101612.34;10543034;28;20048;-57
2021/12/03 07:32:15;;;;;;;25.77;14.00;;;;;;;1.24;100.00;101609.75;10542805;28;20051;-57
2021/12/03 07:37:18;;;;;;;26.27;12.38;;;;;;;1.15;100.00;101612.41;10542375;28;20481;-58
2021/12/03 07:42:20;;;;;;;25.27;12.02;;;;;;;1.17;100.00;101603.78;10542420;28;20048;-54
2021/12/03 07:47:23;;;;;;;21.60;11.35;;;;;;;1.16;100.00;101617.56;10542454;28;20450;-57
2021/12/03 07:52:26;;;;;;;22.50;10.20;;;;;;;1.21;100.00;101626.13;10541581;28;20048;-53
2021/12/03 07:57:28;;;;;;;22.48;10.23;;;;;;;1.21;100.00;101607.19;10541646;28;20502;-57
2021/12/03 08:02:30;;;;;;;22.45;10.00;;;;;;;1.21;100.00;101602.91;10541077;28;20055;-53
2021/12/03 08:07:33;;;;;;;11.18;7.47;;;;;;;1.23;100.00;101615.81;10541420;28;20072;-52
2021/12/03 08:12:38;;;;;;;14.95;8.10;;;;;;;1.12;100.00;101633.91;10541093;28;20411;-57
2021/12/03 08:17:40;;;;;;;20.33;8.82;;;;;;;1.30;100.00;101607.16;10541345;28;20052;-55
2021/12/03 08:22:43;;;;;;;20.20;9.00;;;;;;;1.32;100.00;101610.56;10540556;28;20491;-54
2021/12/03 08:27:45;;;;;;;25.48;8.13;;;;;;;1.23;100.00;101601.16;10540791;28;20048;-55
2021/12/03 08:32:48;;;;;;;22.05;7.93;;;;;;;1.26;100.00;101592.53;10540468;28;20059;-55
2021/12/03 08:37:51;;;;;;;16.13;8.30;;;;;;;1.27;100.00;101589.09;10540553;28;20052;-59
2021/12/03 08:42:53;;;;;;;15.70;8.02;;;;;;;1.35;100.00;101599.38;10539791;28;20499;-54
2021/12/03 08:48:00;;;;;;;14.98;7.68;;;;;;;1.44;100.00;101591.56;10540050;28;20431;-55
2021/12/03 08:58:14;;;;;;;24.27;8.38;;;;;;;1.57;100.00;101576.88;10540075;28;20040;-56
2021/12/03 09:03:16;;;;;;;16.50;6.63;;;;;;;1.61;100.00;101561.31;10541228;28;20048;-57
2021/12/03 09:08:19;;;;;;;19.73;6.97;;;;;;;1.60;100.00;101556.19;10554094;28;20052;-52
2021/12/03 09:13:21;;;;;;;24.52;7.82;;;;;;;1.86;100.00;101555.97;10553284;28;20455;-54
2021/12/03 09:18:31;;;;;;;16.83;6.72;;;;;;;2.08;100.00;101571.25;10553959;28;20048;-51
2021/12/03 09:24:14;;;;;;;20.15;6.20;;;;;;;1.92;100.00;101558.50;10553032;28;21103;-54
2021/12/03 09:29:23;;;;;;;15.00;5.88;;;;;;;2.08;100.00;101573.84;10553496;28;20040;-51
2021/12/03 09:34:30;;;;;;;19.80;5.80;;;;;;;2.10;100.00;101566.94;10553002;28;20052;-53
2021/12/03 09:39:32;;;;;;;15.57;5.75;;;;;;;2.16;100.00;101557.38;10552886;28;20488;-57
2021/12/03 09:44:43;;;;;;;21.27;6.80;;;;;;;2.18;100.00;101568.56;10552504;28;20059;-54
2021/12/03 09:49:53;;;;;;;22.65;5.85;;;;;;;2.19;100.00;101559.09;10553363;28;20047;-58
2021/12/03 09:55:17;;;;;;;13.57;5.15;;;;;;;2.18;100.00;101554.78;10552747;28;20056;-50
2021/12/03 10:16:15;;;;;;;16.13;6.45;;;;;;;2.02;100.00;101508.47;10549787;28;20051;-52
2021/12/03 10:32:40;;;;;;;13.02;4.40;;;;;;;2.38;100.00;101497.72;10545056;28;20515;-54
2021/12/03 10:48:28;;;;;;;19.13;4.85;;;;;;;2.44;100.00;101452.84;10544483;28;20048;-54
2021/12/03 10:53:38;;;;;;;15.23;5.57;;;;;;;2.51;100.00;101445.00;10544333;28;20105;-54
2021/12/03 11:36:39;;;;;;;15.25;7.03;;;;;;;3.07;100.00;101348.47;10543061;28;20128;-59
2021/12/03 12:09:55;;;;;;;16.67;6.28;;;;;;;3.34;100.00;101313.47;10453145;28;20049;-57
2021/12/03 12:15:26;;;;;;;13.85;5.65;;;;;;;3.35;100.00;101305.66;10527916;28;20059;-53
2021/12/03 12:26:25;;;;;;;12.98;5.75;;;;;;;3.60;100.00;101278.41;10517172;28;20047;-58
2021/12/03 12:32:34;;;;;;;15.00;5.30;;;;;;;3.56;100.00;101256.06;10540320;28;20063;-53
2021/12/03 13:08:52;;;;;;;13.18;5.70;;;;;;;3.91;98.41;101216.47;10540028;28;20365;-59
2021/12/03 13:14:15;;;;;;;11.68;4.53;;;;;;;3.79;97.63;101219.34;10539603;28;20059;-55
2021/12/03 14:45:15;;;;;;;6.72;4.82;;;;;;;3.10;100.00;101009.47;10544603;28;20059;-57
2021/12/03 14:55:29;;;;;;;21.73;5.72;;;;;;;3.07;100.00;101012.97;10544746;28;20055;-55
2021/12/03 15:11:29;;;;;;;7.80;4.22;;;;;;;3.17;100.00;101018.78;10543489;28;20056;-54
2021/12/03 15:22:28;;;;;;;13.05;5.88;;;;;;;2.98;100.00;101020.97;10527970;28;20052;-54
2021/12/03 15:27:52;;;;;;;12.73;6.60;;;;;;;2.98;100.00;101032.16;10542928;28;20059;-55
2021/12/03 16:04:30;;;;;;;13.90;7.57;;;;;;;2.85;100.00;100960.88;10541420;28;20404;-55
2021/12/03 16:09:55;;;;;;;9.00;8.07;;;;;;;2.93;100.00;100958.97;10541403;28;20056;-51
2021/12/03 16:51:28;;;;;;;8.63;7.57;;;;;;;3.06;100.00;100910.41;10540023;28;20054;-55
2021/12/03 16:56:30;;;;;;;8.90;7.65;;;;;;;2.98;100.00;100902.81;10540512;28;20051;-56
2021/12/03 17:12:05;;;;;;;6.65;6.05;;;;;;;3.11;100.00;100918.91;10540463;28;20059;-57
2021/12/03 18:00:48;;;;;;;9.30;8.40;;;;;;;3.16;100.00;100870.47;10546501;28;20040;-57
2021/12/03 18:06:08;;;;;;;8.30;7.57;;;;;;;3.06;100.00;100863.84;10531586;28;20450;-57
2021/12/03 18:48:32;;;;;;;9.25;8.43;;;;;;;3.30;100.00;100830.44;10544947;28;20040;-57
2021/12/03 18:58:40;;;;;;;9.48;8.52;;;;;;;3.21;100.00;100825.50;10544251;28;20044;-53
2021/12/03 19:09:08;;;;;;;8.25;7.53;;;;;;;3.21;100.00;100817.75;10543983;28;20048;-55
2021/12/03 19:14:10;;;;;;;10.02;8.40;;;;;;;3.23;100.00;100821.13;10543941;28;20059;-55
2021/12/03 19:19:15;;;;;;;8.52;7.72;;;;;;;3.22;100.00;100820.28;10543658;28;20055;-56
2021/12/03 19:24:18;;;;;;;7.95;7.35;;;;;;;3.27;100.00;100815.00;10543069;28;20051;-53
2021/12/03 19:29:23;;;;;;;9.70;8.88;;;;;;;3.17;100.00;100810.06;10542962;28;20399;-57
2021/12/03 19:34:26;;;;;;;7.40;6.80;;;;;;;3.31;100.00;100814.88;10542674;28;20044;-53
2021/12/03 19:39:28;;;;;;;9.60;8.60;;;;;;;3.34;100.00;100819.13;10542519;28;20533;-54
2021/12/03 19:44:44;;;;;;;9.68;8.73;;;;;;;3.23;100.00;100814.25;10542126;28;20048;-56
2021/12/03 19:49:54;;;;;;;8.68;7.78;;;;;;;3.27;100.00;100813.25;10542128;28;20153;-56
2021/12/03 19:54:56;;;;;;;9.52;8.73;;;;;;;3.30;100.00;100814.94;10542070;28;20052;-57
2021/12/03 19:59:59;;;;;;;8.57;7.68;;;;;;;3.26;100.00;100806.41;10541901;28;20050;-52
2021/12/03 20:05:02;;;;;;;7.00;6.30;;;;;;;3.30;100.00;100791.63;10541907;28;20048;-56
2021/12/03 20:10:10;;;;;;;8.93;8.07;;;;;;;3.16;100.00;100792.84;10541186;28;20055;-54
2021/12/03 20:15:19;;;;;;;6.05;5.45;;;;;;;3.28;100.00;100778.72;10541415;28;20044;-55
2021/12/03 20:20:23;;;;;;;7.72;6.60;;;;;;;3.16;100.00;100785.09;10541425;28;20056;-57
2021/12/03 20:30:48;;;;;;;6.38;5.78;;;;;;;3.24;100.00;100773.69;10540826;28;20054;-56
2021/12/03 20:41:02;;;;;;;7.75;7.05;;;;;;;3.27;100.00;100755.47;10540185;28;20403;-54
2021/12/03 21:12:32;;;;;;;8.40;7.60;;;;;;;3.33;100.00;100769.09;10539421;28;20163;-57
2021/12/03 21:17:44;;;;;;;9.07;8.15;;;;;;;3.26;100.00;100749.47;10539487;28;20040;-55
2021/12/03 21:22:50;;;;;;;9.15;8.18;;;;;;;3.23;100.00;100736.63;10539548;28;20074;-54
2021/12/03 21:27:57;;;;;;;10.35;8.10;;;;;;;3.39;100.00;100749.13;10522114;28;20040;-56
2021/12/03 21:33:29;;;;;;;7.78;6.47;;;;;;;3.35;100.00;100733.66;10539182;28;20492;-57
2021/12/03 21:43:33;;;;;;;8.60;7.80;;;;;;;3.29;100.00;100736.41;10539001;28;20044;-54
2021/12/03 21:48:35;;;;;;;5.97;5.47;;;;;;;3.33;100.00;100735.47;10539263;28;20048;-58
2021/12/03 21:53:38;;;;;;;7.30;6.70;;;;;;;3.32;100.00;100723.41;10538842;28;20052;-58
2021/12/03 21:58:40;;;;;;;7.50;6.72;;;;;;;3.37;100.00;100725.03;10539546;28;20048;-55
2021/12/03 22:03:42;;;;;;;6.85;6.25;;;;;;;3.28;100.00;100714.03;10520640;28;20048;-56
2021/12/03 22:08:45;;;;;;;9.27;8.40;;;;;;;3.34;100.00;100718.19;10538381;28;20048;-58
2021/12/03 22:13:47;;;;;;;6.82;6.22;;;;;;;3.42;100.00;100715.38;10544533;28;20055;-57
2021/12/03 22:18:50;;;;;;;7.68;6.97;;;;;;;3.51;100.00;100720.28;10545911;28;20488;-58
2021/12/03 22:23:53;;;;;;;8.52;7.70;;;;;;;3.34;100.00;100706.09;10546108;28;20051;-55
2021/12/03 22:28:55;;;;;;;8.48;7.68;;;;;;;3.27;100.00;100707.16;10545636;28;20054;-57
2021/12/03 22:33:57;;;;;;;6.35;5.75;;;;;;;3.37;100.00;100704.31;10545234;28;20052;-57
2021/12/03 22:39:00;;;;;;;7.35;6.65;;;;;;;3.17;100.00;100685.88;10545241;28;20044;-57
2021/12/03 22:44:02;;;;;;;6.25;5.75;;;;;;;3.31;100.00;100687.22;10544690;28;20048;-54
2021/12/03 22:54:13;;;;;;;7.82;7.03;;;;;;;3.23;100.00;100668.47;10544473;28;20062;-55
2021/12/03 22:59:16;;;;;;;7.57;6.82;;;;;;;3.45;100.00;100666.97;10544617;28;20048;-59
2021/12/03 23:04:18;;;;;;;7.10;6.40;;;;;;;3.15;100.00;100646.25;10544106;28;20048;-57
2021/12/03 23:09:20;;;;;;;9.77;7.38;;;;;;;3.33;100.00;100642.28;10543552;28;20070;-58
2021/12/03 23:14:23;;;;;;;10.45;8.20;;;;;;;3.28;100.00;100644.19;10544056;28;20048;-59
2021/12/03 23:19:26;;;;;;;8.23;7.35;;;;;;;3.29;100.00;100643.25;10543503;28;20055;-61
2021/12/03 23:24:29;;;;;;;11.20;9.73;;;;;;;3.23;100.00;100621.91;10542327;28;20530;-57
2021/12/03 23:29:31;;;;;;;9.48;8.48;;;;;;;3.34;100.00;100625.03;10543046;28;20052;-55
2021/12/03 23:34:34;;;;;;;11.85;10.35;;;;;;;3.25;100.00;100617.53;10542958;28;20052;-52
2021/12/03 23:39:37;;;;;;;12.30;9.68;;;;;;;3.48;100.00;100624.59;10542579;28;20044;-57
2021/12/03 23:44:39;;;;;;;9.25;8.32;;;;;;;3.59;100.00;100619.09;10542242;28;20044;-57
2021/12/03 23:49:41;;;;;;;13.90;9.23;;;;;;;3.29;100.00;100594.09;10542226;28;20518;-57
2021/12/03 23:54:46;;;;;;;9.98;8.95;;;;;;;3.25;100.00;100586.50;10542138;28;20048;-55
2021/12/03 23:59:49;;;;;;;15.27;11.63;;;;;;;3.37;100.00;100582.69;10524052;28;20105;-55
